createdAt,value
2023-04-13T00:02:24.545Z,0.17
2023-04-13T00:07:28.342Z,0.38
2023-04-13T00:12:30.899Z,0.20
2023-04-13T00:17:33.931Z,0.47
2023-04-13T00:22:37.050Z,0.20
2023-04-13T00:27:39.368Z,0.22
2023-04-13T00:32:43.124Z,0.50
2023-04-13T00:37:48.710Z,0.55
2023-04-13T00:42:51.046Z,0.38
2023-04-13T00:47:57.786Z,0.40
2023-04-13T00:53:01.027Z,0.43
2023-04-13T00:58:02.880Z,0.35
2023-04-13T01:03:05.341Z,0.30
2023-04-13T01:08:11.012Z,0.30
2023-04-13T01:13:40.421Z,0.40
2023-04-13T01:18:45.243Z,0.30
2023-04-13T01:24:26.803Z,0.20
2023-04-13T01:29:30.002Z,0.77
2023-04-13T01:34:32.109Z,0.28
2023-04-13T01:39:34.070Z,0.40
2023-04-13T01:44:36.672Z,0.55
2023-04-13T01:49:39.007Z,0.20
2023-04-13T01:54:45.874Z,0.30
2023-04-13T01:59:47.709Z,0.35
2023-04-13T02:04:50.485Z,0.32
2023-04-13T02:09:52.322Z,0.40
2023-04-13T02:14:54.633Z,0.22
2023-04-13T02:19:57.664Z,0.38
2023-04-13T02:24:59.381Z,0.32
2023-04-13T02:30:01.502Z,0.40
2023-04-13T02:35:04.089Z,0.30
2023-04-13T02:40:12.184Z,1.17
2023-04-13T02:45:18.345Z,0.30
2023-04-13T02:50:20.196Z,0.30
2023-04-13T02:55:22.033Z,0.57
2023-04-13T03:00:25.725Z,0.28
2023-04-13T03:05:28.959Z,0.22
2023-04-13T03:10:31.259Z,0.50
2023-04-13T03:15:33.074Z,0.45
2023-04-13T03:20:34.987Z,0.50
2023-04-13T03:25:36.823Z,0.40
2023-04-13T03:30:38.709Z,0.50
2023-04-13T03:35:40.806Z,0.30
2023-04-13T03:40:42.869Z,0.30
2023-04-13T03:45:44.812Z,0.70
2023-04-13T03:50:47.056Z,0.57
2023-04-13T03:55:48.903Z,0.50
2023-04-13T04:00:50.846Z,0.75
2023-04-13T04:05:52.684Z,0.68
2023-04-13T04:10:54.491Z,0.40
2023-04-13T04:15:56.798Z,0.50
2023-04-13T04:20:58.690Z,0.40
2023-04-13T04:26:04.337Z,0.70
2023-04-13T04:31:12.043Z,0.60
2023-04-13T04:36:16.957Z,0.40
2023-04-13T04:41:20.997Z,0.60
2023-04-13T04:46:26.073Z,0.43
2023-04-13T04:51:29.105Z,0.85
2023-04-13T04:56:31.134Z,0.40
2023-04-13T05:01:34.953Z,2.50
2023-04-13T05:06:37.828Z,4.20
2023-04-13T05:11:39.675Z,2.15
2023-04-13T05:16:41.554Z,0.60
2023-04-13T05:21:43.472Z,1.92
2023-04-13T05:26:45.341Z,6.78
2023-04-13T05:31:47.304Z,10.13
2023-04-13T05:36:50.265Z,5.78
2023-04-13T05:41:52.188Z,9.02
2023-04-13T05:46:54.249Z,9.30
2023-04-13T05:51:56.063Z,2.72
2023-04-13T05:56:57.970Z,4.13
2023-04-13T06:02:01.070Z,1.27
2023-04-13T06:07:02.999Z,0.88
2023-04-13T06:12:05.656Z,0.85
2023-04-13T06:17:07.633Z,5.10
2023-04-13T06:22:09.580Z,7.65
2023-04-13T06:27:11.588Z,2.78
2023-04-13T06:32:13.503Z,1.98
2023-04-13T06:37:16.350Z,1.27
2023-04-13T06:42:19.119Z,1.70
2023-04-13T06:47:21.154Z,1.48
2023-04-13T06:52:22.981Z,0.98
2023-04-13T06:57:24.870Z,1.00
2023-04-13T07:02:27.538Z,0.90
2023-04-13T07:07:29.535Z,0.50
2023-04-13T07:12:34.044Z,1.40
2023-04-13T07:17:36.884Z,0.70
2023-04-13T07:22:38.811Z,0.93
2023-04-13T07:27:40.644Z,0.70
2023-04-13T07:32:42.601Z,1.38
2023-04-13T07:37:46.272Z,0.93
2023-04-13T07:42:50.771Z,0.85
2023-04-13T07:47:54.834Z,1.10
2023-04-13T07:52:56.743Z,1.02
2023-04-13T07:57:59.810Z,1.25
2023-04-13T08:03:02.017Z,0.85
2023-04-13T08:08:04.033Z,1.10
2023-04-13T08:13:05.943Z,0.88
2023-04-13T08:18:07.757Z,0.73
2023-04-13T08:23:10.701Z,0.77
2023-04-13T08:28:14.978Z,1.00
2023-04-13T08:33:16.817Z,1.27
2023-04-13T08:38:19.901Z,0.90
2023-04-13T08:43:22.018Z,1.15
2023-04-13T08:48:24.032Z,1.05
2023-04-13T08:53:25.906Z,1.23
2023-04-13T08:58:31.966Z,0.63
2023-04-13T09:03:43.167Z,1.10
2023-04-13T09:08:46.398Z,0.70
2023-04-13T09:13:52.129Z,1.45
2023-04-13T09:18:55.916Z,1.05
2023-04-13T09:23:59.692Z,1.15
2023-04-13T09:29:03.374Z,1.33
2023-04-13T09:34:06.579Z,1.10
2023-04-13T09:39:08.613Z,1.17
2023-04-13T09:44:20.425Z,1.10
2023-04-13T09:49:22.904Z,1.48
2023-04-13T09:54:25.176Z,1.08
2023-04-13T09:59:27.929Z,1.30
2023-04-13T10:04:31.641Z,1.88
2023-04-13T10:09:33.705Z,0.82
2023-04-13T10:14:39.381Z,0.98
2023-04-13T10:19:48.403Z,1.00
2023-04-13T10:24:52.964Z,0.75
2023-04-13T10:29:55.393Z,0.90
2023-04-13T10:35:09.676Z,0.88
2023-04-13T10:40:14.029Z,1.55
2023-04-13T10:45:27.445Z,1.10
2023-04-13T10:50:29.782Z,1.20
2023-04-13T10:55:35.414Z,1.23
2023-04-13T11:05:42.948Z,1.08
2023-04-13T11:10:51.939Z,1.50
2023-04-13T11:16:02.907Z,0.95
2023-04-13T11:21:08.517Z,1.00
2023-04-13T11:26:11.393Z,7.85
2023-04-13T11:31:13.637Z,2.63
2023-04-13T11:36:20.138Z,6.85
2023-04-13T11:41:22.237Z,1.20
2023-04-13T11:46:27.363Z,1.13
2023-04-13T11:51:29.480Z,1.60
2023-04-13T11:56:31.394Z,1.17
2023-04-13T12:01:34.447Z,1.30
2023-04-13T12:06:42.411Z,1.25
2023-04-13T12:11:50.176Z,1.50
2023-04-13T12:22:05.023Z,1.35
2023-04-13T12:32:15.040Z,0.82
2023-04-13T12:37:17.890Z,1.38
2023-04-13T12:42:19.761Z,1.17
2023-04-13T12:47:21.789Z,1.05
2023-04-13T12:52:23.739Z,1.92
2023-04-13T12:57:26.673Z,1.20
2023-04-13T13:02:32.073Z,1.27
2023-04-13T13:07:33.916Z,1.10
2023-04-13T13:12:35.821Z,1.02
2023-04-13T13:17:41.402Z,1.15
2023-04-13T13:22:43.458Z,0.60
2023-04-13T13:32:50.004Z,0.95
2023-04-13T13:37:51.875Z,0.82
2023-04-13T13:42:54.203Z,2.78
2023-04-13T13:47:58.549Z,2.05
2023-04-13T13:53:04.434Z,1.20
2023-04-13T13:58:07.334Z,1.60
2023-04-13T14:03:09.574Z,0.85
2023-04-13T14:08:11.922Z,0.90
2023-04-13T14:13:13.748Z,0.80
2023-04-13T14:18:15.897Z,0.60
2023-04-13T14:23:18.449Z,0.70
2023-04-13T14:28:20.254Z,0.70
2023-04-13T14:33:22.823Z,2.03
2023-04-13T14:38:24.997Z,1.83
2023-04-13T14:43:26.792Z,1.30
2023-04-13T14:48:29.466Z,1.10
2023-04-13T14:53:31.355Z,1.30
2023-04-13T14:58:33.156Z,1.42
2023-04-13T15:03:35.138Z,3.00
2023-04-13T15:08:40.932Z,3.83
2023-04-13T15:13:42.797Z,2.50
2023-04-13T15:18:44.683Z,16.08
2023-04-13T15:23:46.574Z,0.95
2023-04-13T15:28:48.572Z,2.05
2023-04-13T15:33:50.650Z,1.90
2023-04-13T15:38:52.406Z,1.48
2023-04-13T15:43:55.825Z,1.15
2023-04-13T15:48:57.853Z,1.50
2023-04-13T15:53:59.841Z,1.27
2023-04-13T15:59:02.035Z,1.75
2023-04-13T16:04:04.267Z,1.80
2023-04-13T16:09:06.179Z,9.57
2023-04-13T16:14:09.184Z,5.18
2023-04-13T16:19:12.321Z,0.80
2023-04-13T16:24:14.473Z,0.70
2023-04-13T16:29:17.402Z,0.90
2023-04-13T16:34:25.971Z,0.98
2023-04-13T16:39:28.542Z,0.80
2023-04-13T16:44:30.688Z,1.00
2023-04-13T16:49:33.571Z,1.35
2023-04-13T16:54:36.032Z,0.85
2023-04-13T16:59:38.188Z,1.35
2023-04-13T17:04:40.082Z,3.38
2023-04-13T17:09:41.995Z,0.70
2023-04-13T17:14:44.090Z,1.50
2023-04-13T17:19:46.264Z,2.40
2023-04-13T17:24:48.441Z,1.67
2023-04-13T17:29:50.266Z,2.50
2023-04-13T17:34:52.001Z,1.85
2023-04-13T17:39:53.762Z,1.67
2023-04-13T17:44:56.161Z,0.98
2023-04-13T17:49:58.561Z,1.83
2023-04-13T17:55:00.451Z,2.15
2023-04-13T18:00:02.461Z,0.85
2023-04-13T18:05:04.676Z,1.10
2023-04-13T18:10:06.968Z,1.20
2023-04-13T18:15:09.165Z,2.78
2023-04-13T18:20:11.551Z,1.25
2023-04-13T18:25:13.663Z,1.35
2023-04-13T18:30:15.741Z,13.93
2023-04-13T18:35:18.531Z,12.13
2023-04-13T18:46:32.036Z,12.13
2023-04-13T18:51:33.883Z,6.63
2023-04-13T18:56:36.388Z,10.02
2023-04-13T19:01:38.265Z,3.75
2023-04-13T19:06:40.237Z,6.45
2023-04-13T19:11:47.669Z,1.88
2023-04-13T19:16:52.569Z,1.42
2023-04-13T19:21:55.923Z,2.10
2023-04-13T19:26:58.048Z,2.30
2023-04-13T19:32:01.071Z,2.35
2023-04-13T19:37:03.133Z,9.95
2023-04-13T19:42:04.937Z,2.40
2023-04-13T19:47:06.702Z,2.60
2023-04-13T19:52:15.950Z,2.30
2023-04-13T19:57:18.713Z,2.15
2023-04-13T20:02:21.690Z,1.90
2023-04-13T20:07:23.802Z,3.50
2023-04-13T20:12:25.780Z,4.75
2023-04-13T20:17:27.925Z,4.55
2023-04-13T20:22:29.803Z,4.80
2023-04-13T20:27:31.614Z,2.70
2023-04-13T20:32:34.838Z,2.55
2023-04-13T20:37:36.880Z,2.97
2023-04-13T20:42:42.347Z,3.15
2023-04-13T20:47:44.955Z,3.55
2023-04-13T20:52:47.234Z,3.85
2023-04-13T20:57:50.080Z,3.38
2023-04-13T21:02:53.431Z,2.50
2023-04-13T21:07:56.988Z,2.60
2023-04-13T21:12:59.258Z,4.10
2023-04-13T21:18:01.166Z,6.10
2023-04-13T21:23:03.187Z,5.90
2023-04-13T21:28:05.348Z,3.90
2023-04-13T21:33:07.390Z,3.65
2023-04-13T21:38:09.520Z,4.30
2023-04-13T21:43:11.769Z,7.38
2023-04-13T21:48:15.235Z,8.25
2023-04-13T21:53:17.324Z,7.43
2023-04-13T21:58:19.329Z,6.43
2023-04-13T22:03:21.333Z,7.22
2023-04-13T22:08:24.308Z,5.85
2023-04-13T22:13:26.310Z,6.88
2023-04-13T22:18:28.302Z,8.15
2023-04-13T22:23:30.651Z,5.55
2023-04-13T22:28:32.797Z,5.30
2023-04-13T22:33:37.816Z,6.40
2023-04-13T22:38:39.786Z,5.72
2023-04-13T22:43:41.777Z,4.85
2023-04-13T22:48:43.819Z,4.55
2023-04-13T22:53:48.098Z,4.35
2023-04-13T22:58:49.963Z,6.00
2023-04-13T23:03:52.404Z,3.40
2023-04-13T23:08:57.274Z,4.25
2023-04-13T23:14:00.869Z,4.82
2023-04-13T23:19:03.126Z,7.00
2023-04-13T23:24:05.308Z,6.50
2023-04-13T23:29:07.121Z,6.47
2023-04-13T23:34:09.229Z,6.43
2023-04-13T23:39:11.103Z,7.82
2023-04-13T23:44:13.243Z,6.85
2023-04-13T23:49:15.062Z,6.72
2023-04-13T23:54:16.842Z,4.97
2023-04-13T23:59:18.837Z,7.32
